createdAt,value
2019-06-07T00:00:38.089Z,1007.19
2019-06-07T00:01:22.453Z,1007.22
2019-06-07T00:02:21.457Z,1007.21
2019-06-07T00:03:27.621Z,1007.24
2019-06-07T00:04:22.443Z,1007.26
2019-06-07T00:05:21.403Z,1007.26
2019-06-07T00:06:25.509Z,1007.22
2019-06-07T00:07:21.933Z,1007.21
2019-06-07T00:08:28.038Z,1007.19
2019-06-07T00:09:22.889Z,1007.22
2019-06-07T00:10:35.967Z,1007.22
2019-06-07T00:11:22.344Z,1007.20
2019-06-07T00:12:21.778Z,1007.20
2019-06-07T00:13:21.316Z,1007.21
2019-06-07T00:14:21.423Z,1007.20
2019-06-07T00:15:28.415Z,1007.17
2019-06-07T00:16:23.360Z,1007.19
2019-06-07T00:17:21.282Z,1007.17
2019-06-07T00:18:25.830Z,1007.21
2019-06-07T00:19:22.256Z,1007.20
2019-06-07T00:20:23.670Z,1007.22
2019-06-07T00:22:12.305Z,1007.21
2019-06-07T00:22:32.263Z,1007.19
2019-06-07T00:23:23.016Z,1007.18
2019-06-07T00:24:22.104Z,1007.20
2019-06-07T00:25:24.281Z,1007.16
2019-06-07T00:26:21.463Z,1007.19
2019-06-07T00:27:22.667Z,1007.15
2019-06-07T00:28:21.148Z,1007.18
2019-06-07T00:29:21.805Z,1007.18
2019-06-07T00:30:39.587Z,1007.18
2019-06-07T00:31:24.525Z,1007.20
2019-06-07T00:32:22.022Z,1007.18
2019-06-07T00:33:24.456Z,1007.20
2019-06-07T00:34:23.179Z,1007.18
2019-06-07T00:35:22.551Z,1007.19
2019-06-07T00:36:23.251Z,1007.16
2019-06-07T00:37:25.150Z,1007.22
2019-06-07T00:38:22.031Z,1007.21
2019-06-07T00:39:25.207Z,1007.18
2019-06-07T00:40:31.487Z,1007.18
2019-06-07T00:41:22.408Z,1007.19
2019-06-07T00:42:23.777Z,1007.17
2019-06-07T00:43:27.922Z,1007.17
2019-06-07T00:44:23.412Z,1007.13
2019-06-07T00:45:22.460Z,1007.19
2019-06-07T00:46:25.059Z,1007.13
2019-06-07T00:47:25.028Z,1007.21
2019-06-07T00:48:31.798Z,1007.18
2019-06-07T00:49:40.120Z,1007.19
2019-06-07T00:50:24.192Z,1007.18
2019-06-07T00:51:21.926Z,1007.15
2019-06-07T00:53:11.645Z,1007.17
2019-06-07T00:53:31.787Z,1007.19
2019-06-07T00:54:24.410Z,1007.19
2019-06-07T00:55:25.788Z,1007.13
2019-06-07T00:56:23.416Z,1007.16
2019-06-07T00:57:22.218Z,1007.17
2019-06-07T00:58:24.335Z,1007.16
2019-06-07T00:59:28.620Z,1007.15
2019-06-07T01:00:23.619Z,1007.17
2019-06-07T01:01:24.838Z,1007.18
2019-06-07T01:02:24.886Z,1007.15
2019-06-07T01:03:25.176Z,1007.15
2019-06-07T01:04:22.927Z,1007.20
2019-06-07T01:05:28.123Z,1007.18
2019-06-07T01:06:23.441Z,1007.18
2019-06-07T01:07:21.976Z,1007.20
2019-06-07T01:08:22.732Z,1007.21
2019-06-07T01:09:23.924Z,1007.14
2019-06-07T01:10:46.491Z,1007.15
2019-06-07T01:11:25.378Z,1007.14
2019-06-07T01:12:22.093Z,1007.17
2019-06-07T01:13:22.731Z,1007.20
2019-06-07T01:14:24.152Z,1007.16
2019-06-07T01:15:23.467Z,1007.17
2019-06-07T01:16:23.673Z,1007.13
2019-06-07T01:17:32.618Z,1007.13
2019-06-07T01:18:41.045Z,1007.14
2019-06-07T01:19:25.909Z,1007.18
2019-06-07T01:20:23.818Z,1007.15
2019-06-07T01:21:23.773Z,1007.21
2019-06-07T01:22:23.487Z,1007.15
2019-06-07T01:23:59.317Z,1007.12
2019-06-07T01:24:24.558Z,1007.12
2019-06-07T01:25:23.808Z,1007.11
2019-06-07T01:26:23.777Z,1007.12
2019-06-07T01:27:22.644Z,1007.13
2019-06-07T01:28:23.858Z,1007.13
2019-06-07T01:29:22.291Z,1007.09
2019-06-07T01:30:24.119Z,1007.13
2019-06-07T01:31:24.848Z,1007.12
2019-06-07T01:32:23.873Z,1007.10
2019-06-07T01:33:23.491Z,1007.12
2019-06-07T01:34:25.208Z,1007.11
2019-06-07T01:35:22.070Z,1007.11
2019-06-07T01:36:22.409Z,1007.07
2019-06-07T01:37:22.739Z,1007.06
2019-06-07T01:38:24.470Z,1007.05
2019-06-07T01:39:24.068Z,1007.03
2019-06-07T01:40:27.733Z,1007.01
2019-06-07T01:41:23.617Z,1007.05
2019-06-07T01:42:21.993Z,1007.02
2019-06-07T01:43:23.287Z,1006.95
2019-06-07T01:44:24.177Z,1006.94
2019-06-07T01:45:21.438Z,1006.99
2019-06-07T01:46:20.750Z,1006.91
2019-06-07T01:47:24.517Z,1006.95
2019-06-07T01:48:23.143Z,1006.83
2019-06-07T01:49:22.163Z,1006.86
2019-06-07T01:50:23.356Z,1006.84
2019-06-07T01:51:22.018Z,1006.79
2019-06-07T01:52:23.476Z,1006.76
2019-06-07T01:53:23.711Z,1006.69
2019-06-07T01:54:52.179Z,1006.70
2019-06-07T01:55:23.553Z,1006.67
2019-06-07T01:56:22.539Z,1006.65
2019-06-07T01:57:36.595Z,1006.62
2019-06-07T01:58:22.237Z,1006.62
2019-06-07T01:59:21.885Z,1006.66
2019-06-07T02:00:22.073Z,1006.63
2019-06-07T02:01:21.663Z,1006.60
2019-06-07T02:02:20.208Z,1006.62
2019-06-07T02:03:22.305Z,1006.62
2019-06-07T02:04:23.297Z,1006.59
2019-06-07T02:05:21.534Z,1006.64
2019-06-07T02:06:21.035Z,1006.59
2019-06-07T02:07:24.067Z,1006.60
2019-06-07T02:08:22.230Z,1006.67
2019-06-07T02:09:20.961Z,1006.63
2019-06-07T02:10:24.054Z,1006.68
2019-06-07T02:11:22.448Z,1006.72
2019-06-07T02:12:28.170Z,1006.68
2019-06-07T02:13:21.309Z,1006.73
2019-06-07T02:14:22.321Z,1006.70
2019-06-07T02:15:22.778Z,1006.73
2019-06-07T02:16:21.698Z,1006.70
2019-06-07T02:17:20.856Z,1006.72
2019-06-07T02:18:21.795Z,1006.65
2019-06-07T02:19:19.942Z,1006.70
2019-06-07T02:20:20.352Z,1006.66
2019-06-07T02:21:23.233Z,1006.64
2019-06-07T02:22:21.374Z,1006.60
2019-06-07T02:23:20.673Z,1006.55
2019-06-07T02:24:24.464Z,1006.54
2019-06-07T02:25:39.514Z,1006.56
2019-06-07T02:26:20.815Z,1006.51
2019-06-07T02:27:20.752Z,1006.54
2019-06-07T02:28:31.989Z,1006.54
2019-06-07T02:29:20.834Z,1006.58
2019-06-07T02:30:44.919Z,1006.56
2019-06-07T02:31:21.808Z,1006.57
2019-06-07T02:32:21.583Z,1006.57
2019-06-07T02:33:24.104Z,1006.53
2019-06-07T02:34:21.527Z,1006.53
2019-06-07T02:35:22.548Z,1006.54
2019-06-07T02:36:25.592Z,1006.50
2019-06-07T02:37:21.616Z,1006.54
2019-06-07T02:38:19.687Z,1006.50
2019-06-07T02:39:19.714Z,1006.49
2019-06-07T02:40:19.669Z,1006.46
2019-06-07T02:41:19.692Z,1006.51
2019-06-07T02:42:19.639Z,1006.50
2019-06-07T02:43:19.629Z,1006.53
2019-06-07T02:44:19.660Z,1006.58
2019-06-07T02:45:19.610Z,1006.56
2019-06-07T02:46:28.054Z,1006.59
2019-06-07T02:47:20.583Z,1006.59
2019-06-07T02:48:19.615Z,1006.57
2019-06-07T02:49:19.563Z,1006.54
2019-06-07T02:50:19.594Z,1006.51
2019-06-07T02:51:19.540Z,1006.51
2019-06-07T02:52:19.530Z,1006.53
2019-06-07T02:53:19.517Z,1006.49
2019-06-07T02:54:19.507Z,1006.42
2019-06-07T02:55:19.551Z,1006.40
2019-06-07T02:56:46.613Z,1006.38
2019-06-07T02:57:20.474Z,1006.39
2019-06-07T02:58:19.526Z,1006.37
2019-06-07T02:59:45.530Z,1006.38
2019-06-07T03:00:45.908Z,1006.37
2019-06-07T03:01:20.427Z,1006.36
2019-06-07T03:02:19.424Z,1006.39
2019-06-07T03:03:19.479Z,1006.36
2019-06-07T03:04:19.435Z,1006.42
2019-06-07T03:05:19.408Z,1006.35
2019-06-07T03:06:19.415Z,1006.35
2019-06-07T03:07:19.391Z,1006.39
2019-06-07T03:08:19.350Z,1006.38
2019-06-07T03:09:19.336Z,1006.38
2019-06-07T03:10:19.324Z,1006.34
2019-06-07T03:11:19.375Z,1006.35
2019-06-07T03:12:19.303Z,1006.33
2019-06-07T03:13:19.308Z,1006.32
2019-06-07T03:14:19.278Z,1006.34
2019-06-07T03:15:32.741Z,1006.35
2019-06-07T03:16:20.299Z,1006.38
2019-06-07T03:17:19.249Z,1006.42
2019-06-07T03:18:19.240Z,1006.43
2019-06-07T03:19:19.234Z,1006.41
2019-06-07T03:20:19.222Z,1006.41
2019-06-07T03:21:19.208Z,1006.38
2019-06-07T03:22:19.231Z,1006.41
2019-06-07T03:23:19.181Z,1006.39
2019-06-07T03:24:19.171Z,1006.41
2019-06-07T03:25:19.160Z,1006.42
2019-06-07T03:26:19.145Z,1006.44
2019-06-07T03:27:43.149Z,1006.37
2019-06-07T03:28:20.123Z,1006.35
2019-06-07T03:29:19.115Z,1006.41
2019-06-07T03:31:20.100Z,1006.36
2019-06-07T03:32:19.087Z,1006.34
2019-06-07T03:33:19.112Z,1006.37
2019-06-07T03:34:19.055Z,1006.34
2019-06-07T03:35:19.045Z,1006.36
2019-06-07T03:36:25.681Z,1006.31
2019-06-07T03:37:20.030Z,1006.33
2019-06-07T03:38:19.063Z,1006.33
2019-06-07T03:39:19.041Z,1006.34
2019-06-07T03:40:18.996Z,1006.31
2019-06-07T03:41:19.020Z,1006.34
2019-06-07T03:42:18.983Z,1006.33
2019-06-07T03:43:18.955Z,1006.33
2019-06-07T03:44:18.945Z,1006.31
2019-06-07T03:45:18.970Z,1006.39
2019-06-07T03:46:18.921Z,1006.38
2019-06-07T03:47:18.909Z,1006.39
2019-06-07T03:48:18.910Z,1006.36
2019-06-07T03:49:18.887Z,1006.37
2019-06-07T03:50:18.972Z,1006.41
2019-06-07T03:51:25.288Z,1006.34
2019-06-07T03:52:19.869Z,1006.30
2019-06-07T03:53:18.844Z,1006.25
2019-06-07T03:54:18.832Z,1006.25
2019-06-07T03:55:18.871Z,1006.24
2019-06-07T03:56:18.904Z,1006.22
2019-06-07T03:57:18.798Z,1006.18
2019-06-07T03:58:31.558Z,1006.15
2019-06-07T03:59:19.819Z,1006.20
2019-06-07T04:00:18.769Z,1006.20
2019-06-07T04:01:18.757Z,1006.24
2019-06-07T04:02:18.756Z,1006.22
2019-06-07T04:03:33.603Z,1006.25
2019-06-07T04:04:19.717Z,1006.23
2019-06-07T04:05:18.749Z,1006.25
2019-06-07T04:06:18.697Z,1006.26
2019-06-07T04:07:18.686Z,1006.20
2019-06-07T04:08:18.702Z,1006.23
2019-06-07T04:09:18.668Z,1006.22
2019-06-07T04:10:18.725Z,1006.22
2019-06-07T04:11:18.642Z,1006.23
2019-06-07T04:12:18.630Z,1006.21
2019-06-07T04:13:18.624Z,1006.14
2019-06-07T04:14:18.606Z,1006.09
2019-06-07T04:15:18.595Z,1006.09
2019-06-07T04:16:18.666Z,1006.04
2019-06-07T04:17:18.576Z,1006.08
2019-06-07T04:18:18.562Z,1006.06
2019-06-07T04:19:18.575Z,1006.02
2019-06-07T04:20:18.576Z,1006.03
2019-06-07T04:21:18.529Z,1006.01
2019-06-07T04:22:18.597Z,1006.00
2019-06-07T04:23:27.914Z,1005.99
2019-06-07T04:24:19.498Z,1006.01
2019-06-07T04:25:18.484Z,1005.93
2019-06-07T04:26:18.513Z,1005.91
2019-06-07T04:27:18.462Z,1005.89
2019-06-07T04:28:18.479Z,1005.87
2019-06-07T04:29:33.091Z,1005.83
2019-06-07T04:30:19.480Z,1005.73
2019-06-07T04:31:18.418Z,1005.72
2019-06-07T04:32:18.406Z,1005.67
2019-06-07T04:33:18.397Z,1005.65
2019-06-07T04:34:18.478Z,1005.64
2019-06-07T04:35:18.725Z,1005.59
2019-06-07T04:36:19.874Z,1005.62
2019-06-07T04:37:19.403Z,1005.65
2019-06-07T04:38:18.340Z,1005.64
2019-06-07T04:39:18.435Z,1005.64
2019-06-07T04:40:18.355Z,1005.56
2019-06-07T04:41:18.323Z,1005.54
2019-06-07T04:42:18.338Z,1005.50
2019-06-07T04:43:18.281Z,1005.44
2019-06-07T04:44:18.271Z,1005.42
2019-06-07T04:45:33.749Z,1005.37
2019-06-07T04:46:19.250Z,1005.35
2019-06-07T04:47:18.238Z,1005.37
2019-06-07T04:48:18.229Z,1005.35
2019-06-07T04:49:18.213Z,1005.38
2019-06-07T04:50:18.252Z,1005.34
2019-06-07T04:51:18.215Z,1005.36
2019-06-07T04:52:18.180Z,1005.38
2019-06-07T04:53:18.216Z,1005.38
2019-06-07T04:54:18.262Z,1005.43
2019-06-07T04:55:18.150Z,1005.39
2019-06-07T04:56:18.134Z,1005.39
2019-06-07T04:57:18.236Z,1005.38
2019-06-07T04:58:18.115Z,1005.38
2019-06-07T05:00:00.487Z,1005.40
2019-06-07T05:00:49.719Z,1005.40
2019-06-07T05:01:27.200Z,1005.34
2019-06-07T05:02:19.075Z,1005.31
2019-06-07T05:03:18.098Z,1005.35
2019-06-07T05:04:18.100Z,1005.34
2019-06-07T05:05:18.035Z,1005.38
2019-06-07T05:06:18.054Z,1005.39
2019-06-07T05:07:18.062Z,1005.36
2019-06-07T05:08:27.947Z,1005.37
2019-06-07T05:09:19.042Z,1005.42
2019-06-07T05:10:17.990Z,1005.48
2019-06-07T05:11:18.019Z,1005.53
2019-06-07T05:12:17.987Z,1005.49
2019-06-07T05:13:17.995Z,1005.50
2019-06-07T05:14:18.062Z,1005.48
2019-06-07T05:15:17.949Z,1005.46
2019-06-07T05:16:17.939Z,1005.46
2019-06-07T05:17:17.950Z,1005.49
2019-06-07T05:18:17.893Z,1005.53
2019-06-07T05:19:17.960Z,1005.45
2019-06-07T05:20:17.871Z,1005.42
2019-06-07T05:21:17.865Z,1005.38
2019-06-07T05:22:17.892Z,1005.34
2019-06-07T05:23:59.854Z,1005.33
2019-06-07T05:24:18.835Z,1005.27
2019-06-07T05:25:17.812Z,1005.32
2019-06-07T05:26:17.801Z,1005.29
2019-06-07T05:27:17.881Z,1005.28
2019-06-07T05:28:17.814Z,1005.27
2019-06-07T05:29:17.808Z,1005.28
2019-06-07T05:30:51.019Z,1005.25
2019-06-07T05:31:18.796Z,1005.21
2019-06-07T05:32:17.740Z,1005.19
2019-06-07T05:33:17.869Z,1005.18
2019-06-07T05:34:17.797Z,1005.15
2019-06-07T05:35:17.785Z,1005.18
2019-06-07T05:36:17.699Z,1005.16
2019-06-07T05:37:17.790Z,1005.11
2019-06-07T05:38:17.718Z,1005.11
2019-06-07T05:39:17.795Z,1005.13
2019-06-07T05:40:17.680Z,1005.12
2019-06-07T05:41:17.633Z,1005.17
2019-06-07T05:42:17.640Z,1005.18
2019-06-07T05:43:17.675Z,1005.20
2019-06-07T05:44:17.646Z,1005.16
2019-06-07T05:45:17.592Z,1005.19
2019-06-07T05:46:17.585Z,1005.13
2019-06-07T05:47:17.573Z,1005.12
2019-06-07T05:48:17.623Z,1005.15
2019-06-07T05:49:17.543Z,1005.13
2019-06-07T05:50:38.359Z,1005.18
2019-06-07T05:51:18.547Z,1005.10
2019-06-07T05:52:17.550Z,1005.14
2019-06-07T05:53:17.626Z,1005.11
2019-06-07T05:54:17.490Z,1005.10
2019-06-07T05:55:17.528Z,1005.04
2019-06-07T05:56:17.929Z,1005.07
2019-06-07T05:57:17.460Z,1005.05
2019-06-07T05:58:17.497Z,1005.04
2019-06-07T05:59:17.432Z,1005.02
2019-06-07T06:00:17.459Z,1005.05
2019-06-07T06:02:22.103Z,1004.92
2019-06-07T06:03:17.410Z,1004.86
2019-06-07T06:04:17.473Z,1004.92
2019-06-07T06:05:32.375Z,1004.89
2019-06-07T06:06:19.107Z,1004.85
2019-06-07T06:07:17.365Z,1004.86
2019-06-07T06:08:17.372Z,1004.85
2019-06-07T06:09:17.460Z,1004.84
2019-06-07T06:10:17.339Z,1004.80
2019-06-07T06:11:17.319Z,1004.76
2019-06-07T06:12:34.255Z,1004.80
2019-06-07T06:13:18.330Z,1004.79
2019-06-07T06:14:17.271Z,1004.72
2019-06-07T06:15:17.303Z,1004.74
2019-06-07T06:16:17.310Z,1004.72
2019-06-07T06:17:17.228Z,1004.73
2019-06-07T06:18:17.312Z,1004.69
2019-06-07T06:19:17.209Z,1004.68
2019-06-07T06:20:17.216Z,1004.70
2019-06-07T06:21:19.951Z,1004.70
2019-06-07T06:22:17.188Z,1004.69
2019-06-07T06:23:17.256Z,1004.69
2019-06-07T06:24:17.508Z,1004.65
2019-06-07T06:25:31.991Z,1004.70
2019-06-07T06:26:18.846Z,1004.66
2019-06-07T06:28:02.127Z,1004.67
2019-06-07T06:28:18.151Z,1004.62
2019-06-07T06:29:17.167Z,1004.62
2019-06-07T06:30:17.176Z,1004.61
2019-06-07T06:31:17.080Z,1004.57
2019-06-07T06:32:41.121Z,1004.52
2019-06-07T06:33:33.237Z,1004.53
2019-06-07T06:34:18.322Z,1004.47
2019-06-07T06:35:17.042Z,1004.39
2019-06-07T06:36:17.074Z,1004.47
2019-06-07T06:37:17.010Z,1004.44
2019-06-07T06:38:17.001Z,1004.44
2019-06-07T06:39:17.064Z,1004.49
2019-06-07T06:40:17.047Z,1004.46
2019-06-07T06:41:17.170Z,1004.39
2019-06-07T06:42:16.992Z,1004.35
2019-06-07T06:43:16.962Z,1004.38
2019-06-07T06:44:16.926Z,1004.37
2019-06-07T06:45:16.932Z,1004.35
2019-06-07T06:46:37.333Z,1004.34
2019-06-07T06:47:17.967Z,1004.25
2019-06-07T06:48:16.949Z,1004.22
2019-06-07T06:49:16.874Z,1004.30
2019-06-07T06:50:16.875Z,1004.25
2019-06-07T06:51:16.888Z,1004.24
2019-06-07T06:52:16.869Z,1004.17
2019-06-07T06:53:16.852Z,1004.23
2019-06-07T06:54:39.033Z,1004.18
2019-06-07T06:55:17.840Z,1004.15
2019-06-07T06:56:16.801Z,1004.17
2019-06-07T06:57:20.249Z,1004.09
2019-06-07T06:58:16.779Z,1004.13
2019-06-07T07:00:17.814Z,1004.07
2019-06-07T07:01:16.824Z,1004.12
2019-06-07T07:02:16.875Z,1004.12
2019-06-07T07:04:11.239Z,1004.11
2019-06-07T07:04:17.710Z,1004.09
2019-06-07T07:05:17.141Z,1004.12
2019-06-07T07:06:26.067Z,1004.15
2019-06-07T07:07:17.701Z,1004.17
2019-06-07T07:08:16.667Z,1004.05
2019-06-07T07:09:16.657Z,1004.10
2019-06-07T07:10:16.645Z,1004.13
2019-06-07T07:11:16.701Z,1004.09
2019-06-07T07:12:16.626Z,1004.03
2019-06-07T07:13:16.620Z,1004.04
2019-06-07T07:14:16.683Z,1004.05
2019-06-07T07:15:16.615Z,1004.11
2019-06-07T07:16:16.578Z,1004.01
2019-06-07T07:17:16.632Z,1003.94
2019-06-07T07:18:16.555Z,1003.95
2019-06-07T07:19:16.544Z,1003.92
2019-06-07T07:20:16.530Z,1003.94
2019-06-07T07:21:16.531Z,1003.96
2019-06-07T07:22:16.515Z,1003.97
2019-06-07T07:23:17.435Z,1003.95
2019-06-07T07:24:21.480Z,1003.93
2019-06-07T07:25:17.492Z,1003.91
2019-06-07T07:26:16.610Z,1003.86
2019-06-07T07:27:16.595Z,1003.77
2019-06-07T07:28:16.449Z,1003.85
2019-06-07T07:29:16.442Z,1003.77
2019-06-07T07:30:35.924Z,1003.84
2019-06-07T07:31:17.494Z,1003.76
2019-06-07T07:32:16.426Z,1003.74
2019-06-07T07:33:16.789Z,1003.84
2019-06-07T07:35:17.381Z,1003.77
2019-06-07T07:36:37.635Z,1003.71
2019-06-07T07:37:17.435Z,1003.76
2019-06-07T07:38:16.384Z,1003.73
2019-06-07T07:39:17.308Z,1003.71
2019-06-07T07:41:17.380Z,1003.74
2019-06-07T07:42:21.243Z,1003.69
2019-06-07T07:43:17.364Z,1003.72
2019-06-07T07:44:16.284Z,1003.60
2019-06-07T07:45:16.274Z,1003.69
2019-06-07T07:46:30.819Z,1003.59
2019-06-07T07:47:17.236Z,1003.61
2019-06-07T07:48:18.504Z,1003.63
2019-06-07T07:49:16.229Z,1003.56
2019-06-07T07:50:16.225Z,1003.53
2019-06-07T07:51:16.213Z,1003.49
2019-06-07T07:52:16.234Z,1003.55
2019-06-07T07:53:16.196Z,1003.46
2019-06-07T07:54:16.271Z,1003.44
2019-06-07T07:55:16.269Z,1003.48
2019-06-07T07:56:16.371Z,1003.53
2019-06-07T07:57:16.127Z,1003.48
2019-06-07T07:58:16.131Z,1003.48
2019-06-07T07:59:16.191Z,1003.46
2019-06-07T08:00:49.387Z,1003.44
2019-06-07T08:01:17.140Z,1003.43
2019-06-07T08:02:16.067Z,1003.47
2019-06-07T08:03:16.109Z,1003.39
2019-06-07T08:04:16.090Z,1003.37
2019-06-07T08:05:23.247Z,1003.45
2019-06-07T08:06:17.020Z,1003.38
2019-06-07T08:07:16.013Z,1003.44
2019-06-07T08:08:16.096Z,1003.52
2019-06-07T08:09:16.008Z,1003.50
2019-06-07T08:10:16.024Z,1003.44
2019-06-07T08:11:15.985Z,1003.48
2019-06-07T08:12:15.962Z,1003.37
2019-06-07T08:13:24.919Z,1003.47
2019-06-07T08:14:16.981Z,1003.41
2019-06-07T08:15:15.951Z,1003.37
2019-06-07T08:16:18.666Z,1003.38
2019-06-07T08:17:15.979Z,1003.36
2019-06-07T08:18:15.897Z,1003.32
2019-06-07T08:19:15.944Z,1003.30
2019-06-07T08:20:15.930Z,1003.28
2019-06-07T08:21:25.381Z,1003.28
2019-06-07T08:22:16.893Z,1003.25
2019-06-07T08:23:15.904Z,1003.25
2019-06-07T08:24:15.897Z,1003.24
2019-06-07T08:25:15.812Z,1003.15
2019-06-07T08:26:15.813Z,1003.18
2019-06-07T08:27:25.813Z,1003.14
2019-06-07T08:28:16.824Z,1003.07
2019-06-07T08:29:15.792Z,1003.11
2019-06-07T08:30:47.234Z,1003.08
2019-06-07T08:31:16.766Z,1003.14
2019-06-07T08:32:15.735Z,1003.07
2019-06-07T08:33:26.101Z,1003.08
2019-06-07T08:34:16.716Z,1003.04
2019-06-07T08:36:02.481Z,1003.05
2019-06-07T08:36:25.128Z,1002.97
2019-06-07T08:37:16.685Z,1002.95
2019-06-07T08:38:26.713Z,1003.00
2019-06-07T08:39:16.666Z,1002.96
2019-06-07T08:40:15.697Z,1002.90
2019-06-07T08:41:15.714Z,1002.89
2019-06-07T08:42:21.609Z,1002.99
2019-06-07T08:43:20.888Z,1002.90
2019-06-07T08:44:23.871Z,1002.88
2019-06-07T08:45:16.596Z,1002.89
2019-06-07T08:46:15.578Z,1002.81
2019-06-07T08:47:20.639Z,1002.79
2019-06-07T08:48:27.435Z,1002.77
2019-06-07T08:49:16.564Z,1002.73
2019-06-07T08:50:15.695Z,1002.72
2019-06-07T08:51:15.545Z,1002.72
2019-06-07T08:52:15.611Z,1002.67
2019-06-07T08:53:15.592Z,1002.66
2019-06-07T08:54:22.985Z,1002.71
2019-06-07T08:55:16.474Z,1002.68
2019-06-07T08:56:15.515Z,1002.70
2019-06-07T08:57:21.104Z,1002.66
2019-06-07T08:58:16.557Z,1002.62
2019-06-07T08:59:15.679Z,1002.61
2019-06-07T09:00:42.987Z,1002.61
2019-06-07T09:01:16.503Z,1002.64
2019-06-07T09:02:23.705Z,1002.67
2019-06-07T09:03:16.411Z,1002.56
2019-06-07T09:04:15.576Z,1002.53
2019-06-07T09:05:15.430Z,1002.41
2019-06-07T09:07:01.078Z,1002.42
2019-06-07T09:07:19.801Z,1002.34
2019-06-07T09:08:29.409Z,1002.33
2019-06-07T09:09:16.322Z,1002.26
2019-06-07T09:10:15.739Z,1002.35
2019-06-07T09:11:15.328Z,1002.34
2019-06-07T09:12:15.337Z,1002.32
2019-06-07T09:13:15.336Z,1002.30
2019-06-07T09:14:15.303Z,1002.25
2019-06-07T09:15:23.302Z,1002.29
2019-06-07T09:16:16.879Z,1002.16
2019-06-07T09:17:15.319Z,1002.11
2019-06-07T09:18:42.143Z,1002.14
2019-06-07T09:19:16.252Z,1002.16
2019-06-07T09:20:35.267Z,1002.14
2019-06-07T09:21:16.264Z,1002.16
2019-06-07T09:22:15.181Z,1002.18
2019-06-07T09:23:17.421Z,1002.12
2019-06-07T09:24:15.162Z,1002.17
2019-06-07T09:25:20.865Z,1002.20
2019-06-07T09:26:18.741Z,1002.20
2019-06-07T09:27:15.283Z,1002.13
2019-06-07T09:28:19.776Z,1002.10
2019-06-07T09:29:16.178Z,1002.04
2019-06-07T09:30:18.522Z,1002.07
2019-06-07T09:31:15.088Z,1002.04
2019-06-07T09:32:18.309Z,1002.00
2019-06-07T09:33:15.213Z,1001.92
2019-06-07T09:34:15.722Z,1001.94
2019-06-07T09:35:17.694Z,1001.91
2019-06-07T09:36:15.044Z,1001.88
2019-06-07T09:38:03.204Z,1001.85
2019-06-07T09:38:25.592Z,1001.82
2019-06-07T09:39:16.069Z,1001.80
2019-06-07T09:40:24.113Z,1001.75
2019-06-07T09:41:16.141Z,1001.80
2019-06-07T09:42:15.012Z,1001.84
2019-06-07T09:44:25.141Z,1001.85
2019-06-07T09:45:16.015Z,1001.85
2019-06-07T09:46:16.516Z,1001.75
2019-06-07T09:47:31.215Z,1001.71
2019-06-07T09:48:47.628Z,1001.72
2019-06-07T09:49:28.617Z,1001.68
2019-06-07T09:50:15.866Z,1001.54
2019-06-07T09:51:19.859Z,1001.73
2019-06-07T09:52:15.859Z,1001.71
2019-06-07T09:53:22.625Z,1001.63
2019-06-07T09:55:02.308Z,1001.70
2019-06-07T09:55:24.522Z,1001.64
2019-06-07T09:56:15.894Z,1001.61
2019-06-07T09:57:17.543Z,1001.56
2019-06-07T09:58:50.137Z,1001.58
2019-06-07T09:59:16.297Z,1001.59
2019-06-07T10:00:39.050Z,1001.51
2019-06-07T10:01:15.757Z,1001.59
2019-06-07T10:02:14.763Z,1001.55
2019-06-07T10:03:21.030Z,1001.48
2019-06-07T10:04:30.136Z,1001.48
2019-06-07T10:05:15.804Z,1001.37
2019-06-07T10:06:14.866Z,1001.43
2019-06-07T10:07:30.831Z,1001.48
2019-06-07T10:09:00.979Z,1001.38
2019-06-07T10:11:15.690Z,1001.33
2019-06-07T10:12:14.651Z,1001.30
2019-06-07T10:13:14.659Z,1001.31
2019-06-07T10:14:14.597Z,1001.33
2019-06-07T10:15:14.595Z,1001.21
2019-06-07T10:16:14.577Z,1001.24
2019-06-07T10:17:14.623Z,1001.12
2019-06-07T10:18:14.570Z,1001.22
2019-06-07T10:19:14.574Z,1001.00
2019-06-07T10:20:14.553Z,1001.23
2019-06-07T10:21:15.467Z,1001.26
2019-06-07T10:22:14.557Z,1001.23
2019-06-07T10:23:14.559Z,1001.18
2019-06-07T10:24:14.567Z,1001.09
2019-06-07T10:25:14.514Z,1001.10
2019-06-07T10:26:15.008Z,1001.18
2019-06-07T10:27:14.490Z,1001.10
2019-06-07T10:28:14.490Z,1001.09
2019-06-07T10:29:14.471Z,1001.07
2019-06-07T10:30:14.424Z,1001.05
2019-06-07T10:31:14.569Z,1000.97
2019-06-07T10:32:14.536Z,1001.05
2019-06-07T10:33:14.510Z,1001.05
2019-06-07T10:34:14.758Z,1001.07
2019-06-07T10:35:16.434Z,1001.06
2019-06-07T10:36:14.364Z,1000.98
2019-06-07T10:37:15.581Z,1001.11
2019-06-07T10:38:14.486Z,1000.99
2019-06-07T10:39:14.309Z,1001.09
2019-06-07T10:40:14.333Z,1001.03
2019-06-07T10:41:14.634Z,1001.06
2019-06-07T10:42:14.329Z,1001.04
2019-06-07T10:43:14.650Z,1000.96
2019-06-07T10:44:14.321Z,1000.98
2019-06-07T10:45:14.451Z,1000.97
2019-06-07T10:46:14.304Z,1000.92
2019-06-07T10:47:14.236Z,1000.88
2019-06-07T10:48:14.262Z,1000.93
2019-06-07T10:49:14.241Z,1000.72
2019-06-07T10:50:14.234Z,1000.94
2019-06-07T10:51:14.867Z,1000.99
2019-06-07T10:52:14.215Z,1000.94
2019-06-07T10:53:14.486Z,1000.89
2019-06-07T10:54:24.151Z,1000.87
2019-06-07T10:55:15.159Z,1001.00
2019-06-07T10:56:14.170Z,1000.93
2019-06-07T10:57:16.075Z,1000.90
2019-06-07T10:58:14.129Z,1000.97
2019-06-07T10:59:14.109Z,1001.01
2019-06-07T11:00:14.855Z,1000.83
2019-06-07T11:01:14.525Z,1001.00
2019-06-07T11:02:14.263Z,1000.98
2019-06-07T11:03:14.314Z,1001.04
2019-06-07T11:04:14.095Z,1000.89
2019-06-07T11:05:14.498Z,1000.88
2019-06-07T11:06:14.416Z,1000.93
2019-06-07T11:07:14.461Z,1000.98
2019-06-07T11:08:15.035Z,1000.92
2019-06-07T11:09:14.279Z,1000.95
2019-06-07T11:10:19.461Z,1000.95
2019-06-07T11:11:15.078Z,1000.89
2019-06-07T11:12:15.289Z,1000.86
2019-06-07T11:13:14.454Z,1000.84
2019-06-07T11:14:14.767Z,1000.80
2019-06-07T11:15:14.981Z,1000.73
2019-06-07T11:16:15.477Z,1000.76
2019-06-07T11:17:15.741Z,1000.71
2019-06-07T11:18:14.415Z,1000.70
2019-06-07T11:19:17.666Z,1000.69
2019-06-07T11:20:14.375Z,1000.68
2019-06-07T11:21:14.355Z,1000.66
2019-06-07T11:22:14.271Z,1000.71
2019-06-07T11:23:14.332Z,1000.56
2019-06-07T11:24:14.413Z,1000.57
2019-06-07T11:25:14.717Z,1000.52
2019-06-07T11:26:14.468Z,1000.52
2019-06-07T11:27:16.241Z,1000.54
2019-06-07T11:28:14.718Z,1000.44
2019-06-07T11:29:14.943Z,1000.46
2019-06-07T11:30:14.541Z,1000.53
2019-06-07T11:31:15.093Z,1000.57
2019-06-07T11:32:14.676Z,1000.63
2019-06-07T11:33:16.346Z,1000.63
2019-06-07T11:34:14.677Z,1000.64
2019-06-07T11:35:15.416Z,1000.62
2019-06-07T11:36:15.291Z,1000.63
2019-06-07T11:37:15.580Z,1000.63
2019-06-07T11:38:14.653Z,1000.55
2019-06-07T11:39:15.149Z,1000.55
2019-06-07T11:40:31.912Z,1000.51
2019-06-07T11:41:15.835Z,1000.44
2019-06-07T11:42:14.033Z,1000.45
2019-06-07T11:43:14.853Z,1000.50
2019-06-07T11:44:14.994Z,1000.52
2019-06-07T11:45:15.433Z,1000.53
2019-06-07T11:46:13.623Z,1000.53
2019-06-07T11:47:14.551Z,1000.54
2019-06-07T11:48:13.568Z,1000.53
2019-06-07T11:49:19.881Z,1000.37
2019-06-07T11:50:15.723Z,1000.48
2019-06-07T11:51:14.947Z,1000.50
2019-06-07T11:52:13.988Z,1000.42
2019-06-07T11:53:14.648Z,1000.37
2019-06-07T11:54:14.134Z,1000.47
2019-06-07T11:55:15.796Z,1000.37
2019-06-07T11:56:14.013Z,1000.39
2019-06-07T11:57:15.061Z,1000.38
2019-06-07T11:58:17.251Z,1000.31
2019-06-07T11:59:15.311Z,1000.29
2019-06-07T12:00:14.073Z,1000.30
2019-06-07T12:01:14.888Z,1000.30
2019-06-07T12:02:13.487Z,1000.31
2019-06-07T12:03:13.827Z,1000.39
2019-06-07T12:04:14.078Z,1000.39
2019-06-07T12:05:16.623Z,1000.37
2019-06-07T12:06:14.961Z,1000.30
2019-06-07T12:07:15.129Z,1000.33
2019-06-07T12:08:14.018Z,1000.30
2019-06-07T12:09:14.542Z,1000.32
2019-06-07T12:10:16.544Z,1000.28
2019-06-07T12:11:14.460Z,1000.34
2019-06-07T12:12:14.478Z,1000.31
2019-06-07T12:13:15.385Z,1000.36